createdAt,value
2023-05-24T00:00:12.922Z,11.59
2023-05-24T00:05:18.781Z,11.58
2023-05-24T00:10:21.900Z,11.52
2023-05-24T00:15:24.942Z,11.48
2023-05-24T00:20:29.191Z,11.41
2023-05-24T00:25:32.062Z,11.31
2023-05-24T00:30:57.719Z,11.24
2023-05-24T00:36:01.972Z,11.20
2023-05-24T00:41:04.943Z,11.23
2023-05-24T00:46:16.520Z,11.26
2023-05-24T00:51:20.873Z,11.26
2023-05-24T00:56:23.892Z,11.32
2023-05-24T01:01:31.156Z,11.26
2023-05-24T01:06:44.910Z,11.30
2023-05-24T01:11:58.885Z,11.33
2023-05-24T01:17:05.794Z,11.35
2023-05-24T01:22:19.021Z,11.29
2023-05-24T01:27:24.135Z,11.23
2023-05-24T01:32:27.219Z,11.21
2023-05-24T01:37:30.056Z,11.20
2023-05-24T01:42:40.226Z,11.15
2023-05-24T01:47:51.474Z,11.16
2023-05-24T01:52:55.723Z,11.13
2023-05-24T01:58:04.129Z,11.12
2023-05-24T02:03:08.142Z,11.14
2023-05-24T02:08:12.881Z,11.09
2023-05-24T02:13:18.229Z,11.05
2023-05-24T02:18:22.567Z,10.96
2023-05-24T02:23:25.438Z,10.97
2023-05-24T02:28:32.356Z,10.90
2023-05-24T02:33:35.320Z,10.87
2023-05-24T02:38:38.204Z,10.89
2023-05-24T02:43:43.131Z,10.89
2023-05-24T02:48:45.981Z,10.86
2023-05-24T02:53:48.796Z,10.90
2023-05-24T02:58:54.341Z,10.89
2023-05-24T03:03:57.579Z,10.92
2023-05-24T03:09:01.021Z,10.86
2023-05-24T03:14:06.370Z,10.82
2023-05-24T03:19:10.188Z,10.81
2023-05-24T03:24:14.327Z,10.91
2023-05-24T03:29:18.703Z,11.02
2023-05-24T03:34:22.143Z,11.06
2023-05-24T03:39:25.550Z,11.15
2023-05-24T03:44:43.971Z,11.19
2023-05-24T03:49:47.008Z,11.24
2023-05-24T03:54:50.235Z,11.21
2023-05-24T03:59:54.537Z,11.25
2023-05-24T04:04:58.573Z,11.24
2023-05-24T04:10:01.463Z,11.23
2023-05-24T04:15:07.283Z,11.29
2023-05-24T04:20:11.162Z,11.32
2023-05-24T04:25:14.527Z,11.36
2023-05-24T04:30:19.539Z,11.44
2023-05-24T04:35:22.441Z,11.48
2023-05-24T04:40:26.141Z,11.58
2023-05-24T04:45:30.885Z,11.67
2023-05-24T04:50:35.355Z,11.80
2023-05-24T04:55:38.686Z,11.85
2023-05-24T05:00:43.624Z,11.89
2023-05-24T05:05:46.896Z,12.05
2023-05-24T05:10:49.818Z,12.17
2023-05-24T05:15:54.246Z,12.28
2023-05-24T05:20:57.341Z,12.42
2023-05-24T05:26:00.242Z,12.62
2023-05-24T05:31:04.510Z,12.82
2023-05-24T05:36:07.787Z,13.26
2023-05-24T05:41:10.895Z,13.30
2023-05-24T05:46:16.248Z,13.28
2023-05-24T05:51:19.171Z,13.26
2023-05-24T05:56:22.125Z,13.28
2023-05-24T06:01:26.401Z,13.28
2023-05-24T06:06:29.320Z,13.36
2023-05-24T06:11:32.400Z,13.43
2023-05-24T06:16:41.978Z,13.64
2023-05-24T06:21:47.973Z,14.19
2023-05-24T06:26:52.121Z,14.88
2023-05-24T06:31:56.689Z,15.19
2023-05-24T06:36:59.631Z,16.05
2023-05-24T06:42:02.626Z,17.40
2023-05-24T06:47:13.769Z,18.09
2023-05-24T06:52:16.733Z,18.11
2023-05-24T06:57:19.754Z,18.58
2023-05-24T07:02:27.532Z,18.84
2023-05-24T07:07:30.551Z,18.33
2023-05-24T07:12:33.538Z,17.73
2023-05-24T07:17:38.008Z,17.69
2023-05-24T07:22:42.096Z,16.94
2023-05-24T07:27:45.105Z,16.62
2023-05-24T07:32:49.643Z,17.28
2023-05-24T07:37:52.743Z,17.63
2023-05-24T07:42:56.140Z,18.86
2023-05-24T07:48:01.335Z,20.11
2023-05-24T07:53:05.327Z,19.92
2023-05-24T07:58:08.293Z,19.94
2023-05-24T08:03:14.751Z,19.03
2023-05-24T08:08:17.704Z,18.82
2023-05-24T08:13:20.604Z,20.42
2023-05-24T08:18:24.863Z,22.00
2023-05-24T08:23:29.939Z,21.88
2023-05-24T08:28:32.898Z,20.88
2023-05-24T08:33:37.190Z,20.97
2023-05-24T08:38:40.072Z,20.49
2023-05-24T08:43:43.668Z,20.42
2023-05-24T08:48:48.912Z,19.59
2023-05-24T08:53:52.101Z,20.43
2023-05-24T08:58:55.651Z,20.63
2023-05-24T09:04:01.084Z,20.55
2023-05-24T09:09:04.921Z,20.49
2023-05-24T09:14:09.260Z,20.25
2023-05-24T09:19:14.129Z,19.93
2023-05-24T09:24:17.547Z,20.38
2023-05-24T09:29:24.535Z,20.84
2023-05-24T09:34:28.810Z,20.60
2023-05-24T09:39:32.109Z,21.34
2023-05-24T09:44:35.018Z,21.71
2023-05-24T09:49:39.841Z,21.22
2023-05-24T09:54:44.322Z,20.51
2023-05-24T09:59:47.583Z,20.33
2023-05-24T10:04:53.111Z,20.17
2023-05-24T10:09:56.542Z,19.77
2023-05-24T10:15:00.150Z,19.73
2023-05-24T10:20:06.804Z,19.61
2023-05-24T10:25:12.427Z,20.09
2023-05-24T10:30:21.186Z,20.04
2023-05-24T10:35:27.386Z,20.90
2023-05-24T10:40:30.297Z,21.45
2023-05-24T10:45:35.605Z,21.33
2023-05-24T10:50:40.570Z,20.84
2023-05-24T10:55:54.485Z,20.76
2023-05-24T11:00:57.445Z,20.67
2023-05-24T11:06:01.760Z,20.55
2023-05-24T11:11:23.347Z,20.14
2023-05-24T11:16:35.778Z,19.88
2023-05-24T11:21:42.211Z,20.04
2023-05-24T11:26:45.241Z,20.27
2023-05-24T11:31:49.406Z,20.77
2023-05-24T11:36:55.313Z,20.91
2023-05-24T11:41:58.525Z,20.75
2023-05-24T11:47:01.578Z,20.71
2023-05-24T11:52:06.417Z,20.79
2023-05-24T11:57:13.414Z,21.17
2023-05-24T12:02:16.367Z,21.19
2023-05-24T12:07:20.628Z,21.12
2023-05-24T12:12:30.490Z,20.84
2023-05-24T12:17:38.706Z,20.59
2023-05-24T12:22:50.510Z,20.45
2023-05-24T12:27:55.776Z,20.35
2023-05-24T12:32:59.847Z,20.65
2023-05-24T12:38:04.114Z,20.94
2023-05-24T12:43:07.015Z,20.92
2023-05-24T12:48:09.968Z,20.69
2023-05-24T12:53:14.203Z,20.55
2023-05-24T12:58:17.419Z,20.82
2023-05-24T13:03:20.292Z,20.97
2023-05-24T13:08:24.672Z,20.95
2023-05-24T13:13:28.901Z,20.96
2023-05-24T13:18:31.969Z,20.85
2023-05-24T13:23:38.642Z,20.77
2023-05-24T13:28:58.622Z,21.05
2023-05-24T13:34:05.494Z,20.61
2023-05-24T13:39:15.728Z,20.62
2023-05-24T13:44:33.924Z,20.61
2023-05-24T13:49:37.902Z,20.54
2023-05-24T13:54:42.422Z,20.33
2023-05-24T13:59:45.371Z,19.84
2023-05-24T14:04:48.299Z,19.95
2023-05-24T14:09:52.781Z,19.79
2023-05-24T14:14:59.859Z,19.93
2023-05-24T14:20:03.368Z,20.23
2023-05-24T14:25:09.780Z,20.16
2023-05-24T14:30:13.512Z,20.20
2023-05-24T14:35:16.530Z,20.23
2023-05-24T14:40:20.865Z,20.46
2023-05-24T14:45:23.698Z,20.48
2023-05-24T14:50:26.547Z,20.92
2023-05-24T14:55:30.751Z,20.74
2023-05-24T15:00:33.607Z,20.80
2023-05-24T15:05:37.157Z,20.91
2023-05-24T15:10:44.435Z,20.56
2023-05-24T15:15:48.435Z,20.72
2023-05-24T15:20:51.475Z,20.45
2023-05-24T15:25:55.895Z,20.13
2023-05-24T15:30:58.801Z,20.04
2023-05-24T15:36:01.710Z,19.86
2023-05-24T15:41:06.327Z,19.89
2023-05-24T15:46:09.215Z,19.93
2023-05-24T15:56:19.640Z,19.80
2023-05-24T16:01:22.540Z,19.66
2023-05-24T16:06:25.482Z,19.43
2023-05-24T16:11:29.752Z,19.32
2023-05-24T16:16:32.622Z,18.90
2023-05-24T16:21:35.975Z,18.61
2023-05-24T16:26:40.214Z,18.47
2023-05-24T16:31:43.579Z,18.57
2023-05-24T16:36:47.128Z,18.62
2023-05-24T16:41:52.765Z,18.92
2023-05-24T16:46:55.885Z,18.94
2023-05-24T16:51:58.809Z,19.02
2023-05-24T16:57:03.405Z,19.03
2023-05-24T17:02:06.705Z,19.05
2023-05-24T17:07:09.551Z,19.18
2023-05-24T17:12:13.712Z,19.11
2023-05-24T17:17:16.624Z,19.04
2023-05-24T17:22:19.646Z,18.96
2023-05-24T17:27:23.817Z,18.94
2023-05-24T17:32:26.708Z,18.85
2023-05-24T17:37:29.570Z,18.69
2023-05-24T17:42:33.807Z,18.52
2023-05-24T17:47:36.861Z,18.38
2023-05-24T17:52:39.825Z,18.04
2023-05-24T17:57:44.029Z,17.81
2023-05-24T18:02:46.978Z,17.92
2023-05-24T18:07:50.248Z,18.04
2023-05-24T18:12:54.475Z,17.87
2023-05-24T18:17:57.572Z,17.74
2023-05-24T18:23:00.687Z,17.60
2023-05-24T18:28:05.001Z,17.64
2023-05-24T18:33:08.679Z,17.63
2023-05-24T18:38:11.713Z,17.54
2023-05-24T18:43:16.051Z,17.54
2023-05-24T18:48:18.946Z,17.34
2023-05-24T18:53:21.933Z,17.15
2023-05-24T18:58:26.107Z,17.03
2023-05-24T19:03:29.081Z,16.93
2023-05-24T19:08:32.040Z,16.78
2023-05-24T19:13:36.242Z,16.65
2023-05-24T19:18:39.067Z,16.48
2023-05-24T19:23:42.714Z,16.49
2023-05-24T19:28:51.528Z,16.39
2023-05-24T19:34:00.495Z,16.31
2023-05-24T19:39:04.631Z,16.26
2023-05-24T19:44:09.097Z,16.10
2023-05-24T19:49:12.725Z,15.96
2023-05-24T19:54:15.813Z,15.86
2023-05-24T19:59:20.257Z,15.67
2023-05-24T20:04:23.098Z,15.56
2023-05-24T20:09:25.909Z,15.38
2023-05-24T20:14:31.627Z,15.22
2023-05-24T20:19:34.555Z,15.14
2023-05-24T20:24:37.356Z,15.05
2023-05-24T20:29:41.665Z,14.92
2023-05-24T20:34:44.516Z,14.79
2023-05-24T20:39:47.376Z,14.71
2023-05-24T20:44:51.631Z,14.62
2023-05-24T20:49:54.478Z,14.54
2023-05-24T20:54:57.237Z,14.48
2023-05-24T21:00:01.459Z,14.40
2023-05-24T21:05:05.908Z,14.34
2023-05-24T21:10:09.728Z,14.27
2023-05-24T21:15:13.988Z,14.19
2023-05-24T21:20:16.854Z,14.10
2023-05-24T21:25:19.669Z,14.07
2023-05-24T21:30:23.877Z,14.03
2023-05-24T21:35:27.032Z,14.00
2023-05-24T21:40:29.784Z,13.95
2023-05-24T21:45:34.086Z,13.93
2023-05-24T21:50:36.920Z,13.93
2023-05-24T21:55:39.789Z,13.89
2023-05-24T22:00:43.897Z,13.88
2023-05-24T22:05:47.071Z,13.88
2023-05-24T22:10:50.102Z,13.90
2023-05-24T22:15:54.328Z,13.88
2023-05-24T22:20:59.050Z,13.87
2023-05-24T22:26:01.882Z,13.81
2023-05-24T22:31:06.257Z,13.79
2023-05-24T22:36:09.289Z,13.82
2023-05-24T22:41:12.129Z,13.84
2023-05-24T22:46:16.474Z,13.93
2023-05-24T22:51:19.454Z,13.98
2023-05-24T22:56:22.434Z,13.99
2023-05-24T23:01:26.820Z,13.90
2023-05-24T23:06:31.576Z,13.79
2023-05-24T23:11:35.230Z,13.75
2023-05-24T23:16:45.554Z,13.69
2023-05-24T23:21:48.784Z,13.66
2023-05-24T23:26:51.638Z,13.65
2023-05-24T23:31:55.832Z,13.69
2023-05-24T23:36:58.729Z,13.65
2023-05-24T23:42:02.210Z,13.59
2023-05-24T23:47:06.696Z,13.66
2023-05-24T23:52:10.590Z,13.76
2023-05-24T23:57:13.610Z,13.78
